createdAt,value
2018-07-21T00:00:41.391Z,15.30
2018-07-21T00:08:04.121Z,15.30
2018-07-21T00:10:31.791Z,15.40
2018-07-21T00:12:59.424Z,15.50
2018-07-21T00:17:54.516Z,15.50
2018-07-21T00:20:22.156Z,15.60
2018-07-21T00:22:49.802Z,15.50
2018-07-21T00:25:17.410Z,15.50
2018-07-21T00:30:12.531Z,15.60
2018-07-21T00:32:40.127Z,15.60
2018-07-21T00:35:07.737Z,15.70
2018-07-21T00:40:02.940Z,15.70
2018-07-21T00:42:30.545Z,15.60
2018-07-21T00:44:58.167Z,15.60
2018-07-21T00:47:25.783Z,15.60
2018-07-21T00:49:53.402Z,15.70
2018-07-21T00:52:20.985Z,15.70
2018-07-21T00:57:16.132Z,15.80
2018-07-21T00:59:43.766Z,15.70
2018-07-21T01:02:11.521Z,15.70
2018-07-21T01:04:39.216Z,15.60
2018-07-21T01:12:01.803Z,15.60
2018-07-21T01:14:29.425Z,15.60
2018-07-21T01:16:57.071Z,15.60
2018-07-21T01:19:24.766Z,15.60
2018-07-21T01:21:52.452Z,15.50
2018-07-21T01:24:20.063Z,15.60
2018-07-21T01:29:15.142Z,15.60
2018-07-21T01:31:42.742Z,15.50
2018-07-21T01:39:07.598Z,15.40
2018-07-21T01:44:02.771Z,15.50
2018-07-21T01:46:30.373Z,15.40
2018-07-21T01:48:58.831Z,15.50
2018-07-21T01:51:26.426Z,15.50
2018-07-21T01:53:54.038Z,15.50
2018-07-21T01:56:21.655Z,15.50
2018-07-21T01:58:49.282Z,15.60
2018-07-21T02:01:16.941Z,15.50
2018-07-21T02:03:45.968Z,15.60
2018-07-21T02:06:13.551Z,15.70
2018-07-21T02:08:41.381Z,15.70
2018-07-21T02:11:09.002Z,15.70
2018-07-21T02:13:36.633Z,15.70
2018-07-21T02:16:04.311Z,15.60
2018-07-21T02:18:31.886Z,15.60
2018-07-21T02:20:59.486Z,15.70
2018-07-21T02:25:55.551Z,15.70
2018-07-21T02:28:23.181Z,15.70
2018-07-21T02:30:50.806Z,15.70
2018-07-21T02:33:18.421Z,15.60
2018-07-21T02:35:46.041Z,15.60
2018-07-21T02:38:13.684Z,15.60
2018-07-21T02:40:41.281Z,15.60
2018-07-21T02:43:08.846Z,15.60
2018-07-21T02:45:36.490Z,15.50
2018-07-21T02:48:04.371Z,15.50
2018-07-21T02:50:32.021Z,15.60
2018-07-21T02:52:59.711Z,15.60
2018-07-21T02:55:27.770Z,15.60
2018-07-21T02:57:55.421Z,15.60
2018-07-21T03:00:22.986Z,15.60
2018-07-21T03:05:18.122Z,15.60
2018-07-21T03:10:13.278Z,15.60
2018-07-21T03:12:40.911Z,15.60
2018-07-21T03:15:08.726Z,15.60
2018-07-21T03:17:36.351Z,15.50
2018-07-21T03:20:04.062Z,15.50
2018-07-21T03:22:31.672Z,15.50
2018-07-21T03:24:59.312Z,15.50
2018-07-21T03:27:26.923Z,15.60
2018-07-21T03:29:54.518Z,15.50
2018-07-21T03:32:22.101Z,15.60
2018-07-21T03:34:49.697Z,15.50
2018-07-21T03:37:17.297Z,15.60
2018-07-21T03:42:12.431Z,15.60
2018-07-21T03:47:07.528Z,15.60
2018-07-21T03:49:35.118Z,15.60
2018-07-21T03:52:02.784Z,15.60
2018-07-21T03:54:30.370Z,15.60
2018-07-21T03:56:57.986Z,15.50
2018-07-21T03:59:25.576Z,15.60
2018-07-21T04:01:53.210Z,15.60
2018-07-21T04:06:48.346Z,15.60
2018-07-21T04:09:15.963Z,15.60
2018-07-21T04:11:43.661Z,15.60
2018-07-21T04:14:11.241Z,15.60
2018-07-21T04:19:07.042Z,15.70
2018-07-21T04:24:02.163Z,15.60
2018-07-21T04:28:57.632Z,15.60
2018-07-21T04:31:25.296Z,15.60
2018-07-21T04:33:52.906Z,15.60
2018-07-21T04:36:20.557Z,15.60
2018-07-21T04:38:48.191Z,15.60
2018-07-21T04:41:15.798Z,15.60
2018-07-21T04:43:43.417Z,15.60
2018-07-21T04:48:38.546Z,15.60
2018-07-21T04:53:33.977Z,15.60
2018-07-21T04:56:01.708Z,15.70
2018-07-21T04:58:29.357Z,15.70
2018-07-21T05:00:57.073Z,15.70
2018-07-21T05:03:24.648Z,15.80
2018-07-21T05:10:47.286Z,15.80
2018-07-21T05:13:14.951Z,15.80
2018-07-21T05:15:42.602Z,15.80
2018-07-21T05:18:10.263Z,15.80
2018-07-21T05:20:37.883Z,15.80
2018-07-21T05:23:05.518Z,15.80
2018-07-21T05:25:33.097Z,15.80
2018-07-21T05:28:00.758Z,15.80
2018-07-21T05:30:28.383Z,15.80
2018-07-21T05:35:23.559Z,15.80
2018-07-21T05:37:51.208Z,15.80
2018-07-21T05:40:18.817Z,15.80
2018-07-21T05:45:13.952Z,15.90
2018-07-21T05:47:41.619Z,15.90
2018-07-21T05:50:09.217Z,15.90
2018-07-21T05:55:04.427Z,15.90
2018-07-21T05:57:32.029Z,16.00
2018-07-21T05:59:59.642Z,16.00
2018-07-21T06:04:54.779Z,15.90
2018-07-21T06:07:22.422Z,16.00
2018-07-21T06:09:50.025Z,16.00
2018-07-21T06:14:45.176Z,16.10
2018-07-21T06:17:12.805Z,16.10
2018-07-21T06:19:40.465Z,16.10
2018-07-21T06:22:08.188Z,16.10
2018-07-21T06:24:35.852Z,16.20
2018-07-21T06:29:31.127Z,16.30
2018-07-21T06:31:58.768Z,16.40
2018-07-21T06:34:26.419Z,16.40
2018-07-21T06:39:21.630Z,16.50
2018-07-21T06:41:49.332Z,16.60
2018-07-21T06:44:16.992Z,16.60
2018-07-21T06:49:12.323Z,16.70
2018-07-21T06:54:07.530Z,16.90
2018-07-21T06:56:35.257Z,17.00
2018-07-21T06:59:03.093Z,17.00
2018-07-21T07:01:30.851Z,17.10
2018-07-21T07:03:58.537Z,17.10
2018-07-21T07:08:53.867Z,17.20
2018-07-21T07:11:21.543Z,17.20
2018-07-21T07:18:44.594Z,17.10
2018-07-21T07:34:11.815Z,17.10
2018-07-21T07:36:39.590Z,17.30
2018-07-21T07:39:08.834Z,17.20
2018-07-21T07:41:36.836Z,17.30
2018-07-21T07:44:04.744Z,17.30
2018-07-21T07:46:32.837Z,17.30
2018-07-21T07:53:55.932Z,17.30
2018-07-21T07:56:23.773Z,17.40
2018-07-21T07:58:51.468Z,17.40
2018-07-21T08:01:19.515Z,17.40
2018-07-21T08:03:47.289Z,17.40
2018-07-21T08:06:15.064Z,17.40
2018-07-21T08:11:10.532Z,17.40
2018-07-21T08:13:38.502Z,17.40
2018-07-21T08:16:06.350Z,17.40
2018-07-21T08:21:01.599Z,17.40
2018-07-21T08:23:29.277Z,17.30
2018-07-21T08:25:57.122Z,17.30
2018-07-21T08:28:24.823Z,17.30
2018-07-21T08:30:52.617Z,17.40
2018-07-21T08:35:47.989Z,17.50
2018-07-21T08:38:15.942Z,17.50
2018-07-21T08:40:43.679Z,17.60
2018-07-21T08:43:11.410Z,17.50
2018-07-21T08:48:06.805Z,17.60
2018-07-21T08:50:34.615Z,17.60
2018-07-21T08:53:02.426Z,17.70
2018-07-21T08:55:30.320Z,17.80
2018-07-21T08:57:58.136Z,17.90
2018-07-21T09:00:25.790Z,17.90
2018-07-21T09:02:53.783Z,17.90
2018-07-21T09:07:49.205Z,17.90
2018-07-21T09:10:16.959Z,17.90
2018-07-21T09:12:44.709Z,17.90
2018-07-21T09:15:12.406Z,17.90
2018-07-21T09:17:40.151Z,17.90
2018-07-21T09:20:07.973Z,17.90
2018-07-21T09:25:03.587Z,17.70
2018-07-21T09:27:31.299Z,17.60
2018-07-21T09:29:59.147Z,17.50
2018-07-21T09:32:26.865Z,17.30
2018-07-21T09:34:54.789Z,17.20
2018-07-21T09:37:22.572Z,17.10
2018-07-21T09:39:50.477Z,17.00
2018-07-21T09:44:45.737Z,16.90
2018-07-21T09:47:13.563Z,16.90
2018-07-21T09:49:41.343Z,16.80
2018-07-21T09:52:09.115Z,16.70
2018-07-21T09:54:36.746Z,16.70
2018-07-21T09:57:04.560Z,16.70
2018-07-21T09:59:33.150Z,16.70
2018-07-21T10:04:41.713Z,16.70
2018-07-21T10:07:09.399Z,16.70
2018-07-21T10:09:37.026Z,16.80
2018-07-21T10:12:04.726Z,16.80
2018-07-21T10:14:32.390Z,16.80
2018-07-21T10:17:00.177Z,16.90
2018-07-21T10:19:27.961Z,16.90
2018-07-21T10:24:28.865Z,17.00
2018-07-21T10:27:02.065Z,17.00
2018-07-21T10:31:57.405Z,16.80
2018-07-21T10:34:25.164Z,16.80
2018-07-21T10:36:52.860Z,16.70
2018-07-21T10:39:20.656Z,16.70
2018-07-21T10:44:16.032Z,16.80
2018-07-21T10:46:44.465Z,16.80
2018-07-21T10:49:12.253Z,16.80
2018-07-21T10:51:39.928Z,16.80
2018-07-21T10:56:35.190Z,16.80
2018-07-21T10:59:03.036Z,16.70
2018-07-21T11:01:30.784Z,16.70
2018-07-21T11:03:58.502Z,16.70
2018-07-21T11:06:26.258Z,16.70
2018-07-21T11:11:21.783Z,16.70
2018-07-21T11:16:35.000Z,16.90
2018-07-21T11:19:22.316Z,17.00
2018-07-21T11:22:01.161Z,17.00
2018-07-21T11:24:36.940Z,17.10
2018-07-21T11:29:44.666Z,17.30
2018-07-21T11:32:16.836Z,17.50
2018-07-21T11:34:58.367Z,17.60
2018-07-21T11:37:35.793Z,17.70
2018-07-21T11:40:18.675Z,17.70
2018-07-21T11:42:51.355Z,17.90
2018-07-21T11:45:23.157Z,17.80
2018-07-21T11:48:12.246Z,17.80
2018-07-21T11:50:53.602Z,17.80
2018-07-21T11:53:23.741Z,17.70
2018-07-21T11:56:07.062Z,17.90
2018-07-21T11:58:35.755Z,17.90
2018-07-21T12:03:45.822Z,18.10
2018-07-21T12:08:49.545Z,18.00
2018-07-21T12:11:23.851Z,17.90
2018-07-21T12:13:54.414Z,17.80
2018-07-21T12:16:26.480Z,17.70
2018-07-21T12:18:54.261Z,17.70
2018-07-21T12:21:21.966Z,17.70
2018-07-21T12:23:49.611Z,17.70
2018-07-21T12:26:17.277Z,17.80
2018-07-21T12:28:44.927Z,17.80
2018-07-21T12:31:12.614Z,17.90
2018-07-21T12:33:40.301Z,18.00
2018-07-21T12:36:07.937Z,18.00
2018-07-21T12:38:35.594Z,18.00
2018-07-21T12:41:03.273Z,18.10
2018-07-21T12:43:31.006Z,18.20
2018-07-21T12:45:58.701Z,18.30
2018-07-21T12:48:26.321Z,18.40
2018-07-21T12:50:54.097Z,18.60
2018-07-21T12:53:21.712Z,18.50
2018-07-21T12:55:51.455Z,18.60
2018-07-21T12:58:19.308Z,18.60
2018-07-21T13:00:48.764Z,18.60
2018-07-21T13:03:16.466Z,18.60
2018-07-21T13:05:44.092Z,18.70
2018-07-21T13:08:11.714Z,18.90
2018-07-21T13:10:39.404Z,19.20
2018-07-21T13:15:34.559Z,19.50
2018-07-21T13:20:29.859Z,19.30
2018-07-21T13:22:57.830Z,19.30
2018-07-21T13:25:25.501Z,19.10
2018-07-21T13:27:53.403Z,19.10
2018-07-21T13:30:21.035Z,19.00
2018-07-21T13:32:48.689Z,19.10
2018-07-21T13:35:16.303Z,19.10
2018-07-21T13:37:44.000Z,19.20
2018-07-21T13:40:11.631Z,19.10
2018-07-21T13:42:39.332Z,19.30
2018-07-21T13:50:02.087Z,19.60
2018-07-21T13:52:29.789Z,19.30
2018-07-21T13:54:58.139Z,19.30
2018-07-21T13:57:26.331Z,19.20
2018-07-21T13:59:54.290Z,19.20
2018-07-21T14:02:22.138Z,19.10
2018-07-21T14:04:50.268Z,18.80
2018-07-21T14:07:17.960Z,18.70
2018-07-21T14:17:08.361Z,18.70
2018-07-21T14:19:36.032Z,18.70
2018-07-21T14:22:03.782Z,18.70
2018-07-21T14:26:59.701Z,18.70
2018-07-21T14:31:55.656Z,18.70
2018-07-21T14:36:50.962Z,18.70
2018-07-21T14:41:46.256Z,18.60
2018-07-21T14:44:13.876Z,18.50
2018-07-21T14:46:41.528Z,18.40
2018-07-21T14:49:09.209Z,18.40
2018-07-21T14:51:36.891Z,18.30
2018-07-21T14:54:04.563Z,18.30
2018-07-21T14:58:59.800Z,18.30
2018-07-21T15:01:27.557Z,18.30
2018-07-21T15:03:55.279Z,18.30
2018-07-21T15:06:22.931Z,18.10
2018-07-21T15:08:50.562Z,18.20
2018-07-21T15:18:41.147Z,18.30
2018-07-21T15:23:36.451Z,18.30
2018-07-21T15:26:04.425Z,18.20
2018-07-21T15:28:32.919Z,18.10
2018-07-21T15:35:57.120Z,18.30
2018-07-21T15:38:24.837Z,18.20
2018-07-21T15:43:20.182Z,18.30
2018-07-21T15:50:43.275Z,18.30
2018-07-21T15:55:38.451Z,18.30
2018-07-21T15:58:06.272Z,18.30
2018-07-21T16:03:01.571Z,18.50
2018-07-21T16:05:29.314Z,18.50
2018-07-21T16:15:21.599Z,18.50
2018-07-21T16:22:44.867Z,18.30
2018-07-21T16:27:42.093Z,18.00
2018-07-21T16:35:07.180Z,17.40
2018-07-21T16:37:36.341Z,17.20
2018-07-21T16:40:04.976Z,17.20
2018-07-21T16:42:33.662Z,17.10
2018-07-21T16:45:01.328Z,17.00
2018-07-21T16:47:29.266Z,16.90
2018-07-21T16:52:24.722Z,16.90
2018-07-21T16:54:52.360Z,16.80
2018-07-21T16:57:20.012Z,16.80
2018-07-21T16:59:47.806Z,16.80
2018-07-21T17:04:43.547Z,16.70
2018-07-21T17:07:11.918Z,16.70
2018-07-21T17:09:39.563Z,16.60
2018-07-21T17:12:07.192Z,16.60
2018-07-21T17:14:34.896Z,16.50
2018-07-21T17:17:02.561Z,16.60
2018-07-21T17:21:57.826Z,16.50
2018-07-21T17:24:25.500Z,16.50
2018-07-21T17:26:53.410Z,16.50
2018-07-21T17:29:21.215Z,16.40
2018-07-21T17:31:48.866Z,16.50
2018-07-21T17:34:16.566Z,16.50
2018-07-21T17:36:44.300Z,16.60
2018-07-21T17:39:12.296Z,16.50
2018-07-21T17:41:40.426Z,16.50
2018-07-21T17:46:35.965Z,16.40
2018-07-21T17:49:04.281Z,16.40
2018-07-21T17:51:32.182Z,16.40
2018-07-21T17:53:59.790Z,16.50
2018-07-21T17:58:55.007Z,16.40
2018-07-21T18:01:22.651Z,16.40
2018-07-21T18:03:50.392Z,16.40
2018-07-21T18:06:17.999Z,16.40
2018-07-21T18:08:45.692Z,16.40
2018-07-21T18:16:08.445Z,16.40
2018-07-21T18:18:37.015Z,16.30
2018-07-21T18:21:04.701Z,16.30
2018-07-21T18:23:32.449Z,16.30
2018-07-21T18:26:00.079Z,16.20
2018-07-21T18:30:55.388Z,16.30
2018-07-21T18:33:23.064Z,16.30
2018-07-21T18:35:50.761Z,16.40
2018-07-21T18:38:18.402Z,16.40
2018-07-21T18:40:46.093Z,16.30
2018-07-21T18:45:41.747Z,16.30
2018-07-21T18:48:09.402Z,16.30
2018-07-21T18:53:04.875Z,16.30
2018-07-21T18:55:32.580Z,16.30
2018-07-21T18:58:00.354Z,16.30
2018-07-21T19:00:28.040Z,16.70
2018-07-21T19:05:23.277Z,16.20
2018-07-21T19:10:18.873Z,16.20
2018-07-21T19:12:48.674Z,16.10
2018-07-21T19:15:21.968Z,16.10
2018-07-21T19:17:50.187Z,16.10
2018-07-21T19:20:23.743Z,16.00
2018-07-21T19:22:51.541Z,16.00
2018-07-21T19:25:24.803Z,15.90
2018-07-21T19:27:52.929Z,16.00
2018-07-21T19:32:54.030Z,15.90
2018-07-21T19:37:49.630Z,15.90
2018-07-21T19:40:19.142Z,15.90
2018-07-21T19:45:15.455Z,15.90
2018-07-21T19:47:43.412Z,16.00
2018-07-21T19:50:11.262Z,16.00
2018-07-21T19:52:39.527Z,16.00
2018-07-21T19:55:07.424Z,16.10
2018-07-21T19:57:35.117Z,16.10
2018-07-21T20:02:30.579Z,16.00
2018-07-21T20:04:58.267Z,16.00
2018-07-21T20:07:26.232Z,16.00
2018-07-21T20:09:54.012Z,16.00
2018-07-21T20:12:21.808Z,16.00
2018-07-21T20:14:49.631Z,16.00
2018-07-21T20:17:21.005Z,16.00
2018-07-21T20:22:17.151Z,16.00
2018-07-21T20:24:44.871Z,16.00
2018-07-21T20:27:12.933Z,16.10
2018-07-21T20:29:40.542Z,15.90
2018-07-21T20:32:08.563Z,16.10
2018-07-21T20:34:36.389Z,15.90
2018-07-21T20:37:05.052Z,16.00
2018-07-21T20:42:07.364Z,16.00
2018-07-21T20:44:37.687Z,15.90
2018-07-21T20:47:06.109Z,15.90
2018-07-21T20:52:02.264Z,15.90
2018-07-21T20:54:29.992Z,15.90
2018-07-21T20:59:25.303Z,15.90
2018-07-21T21:01:53.573Z,15.90
2018-07-21T21:04:21.306Z,16.00
2018-07-21T21:06:49.272Z,16.00
2018-07-21T21:09:16.942Z,16.00
2018-07-21T21:11:44.807Z,15.90
2018-07-21T21:14:12.817Z,15.90
2018-07-21T21:16:40.474Z,15.90
2018-07-21T21:19:13.331Z,16.00
2018-07-21T21:24:28.006Z,16.00
2018-07-21T21:27:02.201Z,15.90
2018-07-21T21:29:31.122Z,15.90
2018-07-21T21:34:29.958Z,15.90
2018-07-21T21:36:58.932Z,15.80
2018-07-21T21:39:27.307Z,15.80
2018-07-21T21:41:56.787Z,15.70
2018-07-21T21:44:24.492Z,15.80
2018-07-21T21:49:20.250Z,15.80
2018-07-21T21:51:49.523Z,15.80
2018-07-21T21:54:17.234Z,15.70
2018-07-21T21:56:44.828Z,15.70
2018-07-21T21:59:12.559Z,15.70
2018-07-21T22:04:07.860Z,15.70
2018-07-21T22:06:35.482Z,15.70
2018-07-21T22:09:05.788Z,15.70
2018-07-21T22:18:55.974Z,15.70
2018-07-21T22:21:23.568Z,15.70
2018-07-21T22:23:51.228Z,15.70
2018-07-21T22:26:18.850Z,15.70
2018-07-21T22:36:09.119Z,15.80
2018-07-21T22:41:04.319Z,15.80
2018-07-21T22:43:31.931Z,15.80
2018-07-21T22:45:59.654Z,15.80
2018-07-21T22:48:27.238Z,15.80
2018-07-21T22:53:22.472Z,15.70
2018-07-21T22:58:17.628Z,15.70
2018-07-21T23:00:45.645Z,15.80
2018-07-21T23:03:13.253Z,15.70
2018-07-21T23:08:08.383Z,15.70
2018-07-21T23:17:58.635Z,15.60
2018-07-21T23:22:53.809Z,15.60
2018-07-21T23:25:21.427Z,15.60
2018-07-21T23:27:49.042Z,15.50
2018-07-21T23:30:16.673Z,15.60
2018-07-21T23:32:44.312Z,15.60
2018-07-21T23:35:12.047Z,15.60
2018-07-21T23:37:39.783Z,15.60
2018-07-21T23:40:07.694Z,15.70
2018-07-21T23:42:35.432Z,15.60
2018-07-21T23:47:30.735Z,15.60
2018-07-21T23:49:58.421Z,15.60
2018-07-21T23:52:26.121Z,15.70
2018-07-21T23:54:53.782Z,15.60
2018-07-21T23:57:21.547Z,15.60
2018-07-21T23:59:49.182Z,15.70
